Time;durP1;ratioP1;P1;durP2;ratioP2;P2;SDS_P1;SDS_P2;PMS_P1;PMS_P2;Temp;Humidity;BMP_temperature;BMP_pressure;BME280_temperature;BME280_humidity;BME280_pressure;Samples;Min_cycle;Max_cycle;Signal;HPM_P1;HPM_P2
2023/10/02 00:00:19;;;;;;;;;;;;;;;;;;5173338;27;19963;-88
2023/10/02 00:02:47;;;;;;;;;;;;;;;;;;5159474;27;19914;-88
2023/10/02 00:05:40;;;;;;;;;;;;;;;;;;5159890;27;19903;-88
2023/10/02 00:08:00;;;;;;;;;;;;;;;;;;5159117;27;19903;-88
2023/10/02 00:10:29;;;;;;;;;;;;;;;;;;5175608;27;19910;-87
2023/10/02 00:12:59;;;;;;;;;;;;;;;;;;5160801;27;19907;-87
2023/10/02 00:15:25;;;;;;;;;;;;;;;;;;5179103;27;19911;-87
2023/10/02 00:17:51;;;;;;;;;;;;;;;;;;5154762;27;20216;-88
2023/10/02 00:20:26;;;;;;;;;;;;;;;;;;5183913;27;19903;-88
2023/10/02 00:22:52;;;;;;;;;;;;;;;;;;5184345;27;19910;-87
2023/10/02 00:25:19;;;;;;;;;;;;;;;;;;5183847;27;19955;-88
2023/10/02 00:27:51;;;;;;;;;;;;;;;;;;5184200;27;19907;-88
2023/10/02 00:30:20;;;;;;;;;;;;;;;;;;5183833;27;20302;-88
2023/10/02 00:32:46;;;;;;;;;;;;;;;;;;5183958;27;19993;-87
2023/10/02 00:35:12;;;;;;;;;;;;;;;;;;5165422;27;20289;-88
2023/10/02 00:37:44;;;;;;;;;;;;;;;;;;5183808;27;19906;-88
2023/10/02 00:40:10;;;;;;;;;;;;;;;;;;5183734;27;19988;-87
2023/10/02 00:42:36;;;;;;;;;;;;;;;;;;5183025;27;19903;-87
2023/10/02 00:45:03;;;;;;;;;;;;;;;;;;5162975;27;20043;-87
2023/10/02 00:47:38;;;;;;;;;;;;;;;;;;5144353;27;19907;-88
2023/10/02 00:50:07;;;;;;;;;;;;;;;;;;5162663;27;20319;-87
2023/10/02 00:52:33;;;;;;;;;;;;;;;;;;5180130;27;19910;-87
2023/10/02 00:55:05;;;;;;;;;;;;;;;;;;5164092;27;20223;-87
2023/10/02 00:57:31;;;;;;;;;;;;;;;;;;5183643;27;19906;-87
2023/10/02 00:59:59;;;;;;;;;;;;;;;;;;5171785;27;19907;-87
2023/10/02 01:02:25;;;;;;;;;;;;;;;;;;5162357;27;19953;-86
2023/10/02 01:05:14;;;;;;;;;;;;;;;;;;5162593;27;19904;-88
2023/10/02 01:07:40;;;;;;;;;;;;;;;;;;5171850;27;19951;-87
2023/10/02 01:10:07;;;;;;;;;;;;;;;;;;5165028;27;19906;-88
2023/10/02 01:12:43;;;;;;;;;;;;;;;;;;5183375;27;19902;-87
2023/10/02 01:15:11;;;;;;;;;;;;;;;;;;5183395;27;19947;-87
2023/10/02 01:17:39;;;;;;;;;;;;;;;;;;5164471;27;19906;-87
2023/10/02 01:20:10;;;;;;;;;;;;;;;;;;5182956;27;19907;-87
2023/10/02 01:22:38;;;;;;;;;;;;;;;;;;5164534;27;19903;-86
2023/10/02 01:25:13;;;;;;;;;;;;;;;;;;5163857;27;19915;-86
2023/10/02 01:27:42;;;;;;;;;;;;;;;;;;5183125;27;19914;-86
2023/10/02 01:30:18;;;;;;;;;;;;;;;;;;5164335;27;19903;-87
2023/10/02 01:32:44;;;;;;;;;;;;;;;;;;5182026;27;19926;-86
2023/10/02 01:35:10;;;;;;;;;;;;;;;;;;5182455;27;19953;-87
2023/10/02 01:37:36;;;;;;;;;;;;;;;;;;5163245;27;19957;-86
2023/10/02 01:42:47;;;;;;;;;;;;;;;;;;5173448;27;19986;-87
2023/10/02 01:45:13;;;;;;;;;;;;;;;;;;5167901;27;20216;-86
2023/10/02 01:47:41;;;;;;;;;;;;;;;;;;5143003;27;19910;-86
2023/10/02 01:50:09;;;;;;;;;;;;;;;;;;5163825;27;20212;-87
2023/10/02 01:52:35;;;;;;;;;;;;;;;;;;5161395;27;19910;-87
2023/10/02 01:55:02;;;;;;;;;;;;;;;;;;5161210;27;19998;-87
2023/10/02 01:57:29;;;;;;;;;;;;;;;;;;5161214;27;19991;-87
2023/10/02 02:00:13;;;;;;;;;;;;;;;;;;5153619;27;19938;-86
2023/10/02 02:02:41;;;;;;;;;;;;;;;;;;5166904;27;19907;-87
2023/10/02 02:07:53;;;;;;;;;;;;;;;;;;5161029;27;20339;-88
2023/10/02 02:10:22;;;;;;;;;;;;;;;;;;5142720;27;19910;-87
2023/10/02 02:12:55;;;;;;;;;;;;;;;;;;5179861;27;19914;-87
2023/10/02 02:15:21;;;;;;;;;;;;;;;;;;5181832;27;19911;-87
2023/10/02 02:17:49;;;;;;;;;;;;;;;;;;5163503;27;19947;-88
2023/10/02 02:20:43;;;;;;;;;;;;;;;;;;5181835;27;19910;-87
2023/10/02 02:23:07;;;;;;;;;;;;;;;;;;5181579;27;19906;-86
2023/10/02 02:25:33;;;;;;;;;;;;;;;;;;5181600;27;19919;-88
2023/10/02 02:28:00;;;;;;;;;;;;;;;;;;5181859;27;19910;-87
2023/10/02 02:30:26;;;;;;;;;;;;;;;;;;5163226;27;19903;-87
2023/10/02 02:32:55;;;;;;;;;;;;;;;;;;5162987;27;19906;-87
2023/10/02 02:35:21;;;;;;;;;;;;;;;;;;5151019;27;19911;-87
2023/10/02 02:37:49;;;;;;;;;;;;;;;;;;5160162;27;19910;-87
2023/10/02 02:40:25;;;;;;;;;;;;;;;;;;5168886;27;19907;-87
2023/10/02 02:42:51;;;;;;;;;;;;;;;;;;5162806;27;19953;-87
2023/10/02 02:45:29;;;;;;;;;;;;;;;;;;5178886;27;19906;-87
2023/10/02 02:47:57;;;;;;;;;;;;;;;;;;5162866;27;19949;-86
2023/10/02 02:50:28;;;;;;;;;;;;;;;;;;5162856;27;19961;-87
2023/10/02 02:53:16;;;;;;;;;;;;;;;;;;5162279;27;19941;-87
2023/10/02 02:55:39;;;;;;;;;;;;;;;;;;5159953;27;19938;-87
2023/10/02 02:58:06;;;;;;;;;;;;;;;;;;5141227;27;20288;-87
2023/10/02 03:00:35;;;;;;;;;;;;;;;;;;5164498;27;20366;-87
2023/10/02 03:03:01;;;;;;;;;;;;;;;;;;5162506;27;19910;-88
2023/10/02 03:05:40;;;;;;;;;;;;;;;;;;5162685;27;19903;-88
2023/10/02 03:08:07;;;;;;;;;;;;;;;;;;5160395;27;20301;-88
2023/10/02 03:10:40;;;;;;;;;;;;;;;;;;5159975;27;19910;-88
2023/10/02 03:13:15;;;;;;;;;;;;;;;;;;5141807;27;19903;-88
2023/10/02 03:15:48;;;;;;;;;;;;;;;;;;5141758;27;19933;-88
2023/10/02 03:18:30;;;;;;;;;;;;;;;;;;5159837;27;19998;-88
2023/10/02 03:20:57;;;;;;;;;;;;;;;;;;5181033;27;19914;-87
2023/10/02 03:23:27;;;;;;;;;;;;;;;;;;5180856;27;19947;-88
2023/10/02 03:25:56;;;;;;;;;;;;;;;;;;5180525;27;19927;-87
2023/10/02 03:28:28;;;;;;;;;;;;;;;;;;5162337;27;20355;-87
2023/10/02 03:30:54;;;;;;;;;;;;;;;;;;5179322;27;19964;-87
2023/10/02 03:33:20;;;;;;;;;;;;;;;;;;5169056;27;20289;-92
2023/10/02 03:35:58;;;;;;;;;;;;;;;;;;5168137;27;19918;-91
2023/10/02 03:38:24;;;;;;;;;;;;;;;;;;5162129;27;19941;-91
2023/10/02 03:40:50;;;;;;;;;;;;;;;;;;5180735;27;19903;-89
2023/10/02 03:43:29;;;;;;;;;;;;;;;;;;5180655;27;19913;-90
2023/10/02 03:45:55;;;;;;;;;;;;;;;;;;5162330;27;19903;-91
2023/10/02 03:48:21;;;;;;;;;;;;;;;;;;5182816;27;19909;-93
2023/10/02 03:50:48;;;;;;;;;;;;;;;;;;5166031;27;19906;-91
2023/10/02 03:53:28;;;;;;;;;;;;;;;;;;5166303;27;19903;-91
2023/10/02 03:55:59;;;;;;;;;;;;;;;;;;5166275;27;19914;-92
2023/10/02 03:58:38;;;;;;;;;;;;;;;;;;5184690;27;19962;-91
2023/10/02 04:01:08;;;;;;;;;;;;;;;;;;5184515;27;19909;-92
2023/10/02 04:06:20;;;;;;;;;;;;;;;;;;5184460;27;20020;-91
2023/10/02 04:08:47;;;;;;;;;;;;;;;;;;5184740;27;19909;-92
2023/10/02 04:11:14;;;;;;;;;;;;;;;;;;5184757;27;20193;-92
2023/10/02 04:13:43;;;;;;;;;;;;;;;;;;5165819;27;19950;-92
2023/10/02 04:16:28;;;;;;;;;;;;;;;;;;5165508;27;19910;-92
2023/10/02 04:21:52;;;;;;;;;;;;;;;;;;5184357;27;20023;-92
2023/10/02 04:24:23;;;;;;;;;;;;;;;;;;5182815;27;19914;-92
2023/10/02 04:26:53;;;;;;;;;;;;;;;;;;5163491;27;19911;-91
2023/10/02 04:29:29;;;;;;;;;;;;;;;;;;5145103;27;20238;-91
2023/10/02 04:32:11;;;;;;;;;;;;;;;;;;5144736;27;19903;-92
2023/10/02 04:34:38;;;;;;;;;;;;;;;;;;5162239;27;20009;-91
2023/10/02 04:37:19;;;;;;;;;;;;;;;;;;5165162;27;19939;-91
2023/10/02 04:39:53;;;;;;;;;;;;;;;;;;5165456;27;19909;-92
2023/10/02 04:42:21;;;;;;;;;;;;;;;;;;5165146;27;19910;-92
2023/10/02 04:44:48;;;;;;;;;;;;;;;;;;5183631;27;20268;-92
2023/10/02 04:47:17;;;;;;;;;;;;;;;;;;5184184;27;20009;-92
2023/10/02 04:50:33;;;;;;;;;;;;;;;;;;5183724;27;19909;-91
2023/10/02 04:52:53;;;;;;;;;;;;;;;;;;5183548;27;20296;-92
2023/10/02 04:55:22;;;;;;;;;;;;;;;;;;5183121;27;19906;-92
2023/10/02 04:57:50;;;;;;;;;;;;;;;;;;5165100;27;19942;-91
2023/10/02 05:00:34;;;;;;;;;;;;;;;;;;5164571;27;19907;-91
2023/10/02 05:03:09;;;;;;;;;;;;;;;;;;5164036;27;19912;-91
2023/10/02 05:05:36;;;;;;;;;;;;;;;;;;5182958;27;19906;-91
2023/10/02 05:08:02;;;;;;;;;;;;;;;;;;5164916;27;19913;-92
2023/10/02 05:10:28;;;;;;;;;;;;;;;;;;5164205;27;19902;-90
2023/10/02 05:12:54;;;;;;;;;;;;;;;;;;5164977;27;19903;-90
2023/10/02 05:26:41;;;;;;;17.17;7.28;;;;;;;;;;5094881;27;20363;-92
2023/10/02 05:29:09;;;;;;;21.00;7.65;;;;;;;;;;5094157;28;20116;-93
2023/10/02 05:31:36;;;;;;;26.17;8.60;;;;;;;;;;5095181;28;20032;-92
2023/10/02 05:34:24;;;;;;;21.23;7.25;;;;;;;;;;5093944;28;20020;-92
2023/10/02 05:37:11;;;;;;;21.92;7.68;;;;;;;;;;5095001;28;20306;-84
2023/10/02 05:39:41;;;;;;;16.83;6.88;;;;;;;;;;5094926;28;20329;-84
2023/10/02 05:42:14;;;;;;;18.88;6.68;;;;;;;;;;5093739;28;20039;-84
2023/10/02 05:44:45;;;;;;;17.75;7.10;;;;;;;;;;5093555;28;20467;-85
2023/10/02 05:47:17;;;;;;;19.67;7.57;;;;;;;;;;5093611;28;20020;-85
2023/10/02 05:49:47;;;;;;;21.63;7.63;;;;;;;;;;5093513;28;20070;-85
2023/10/02 05:52:14;;;;;;;18.83;7.18;;;;;;;;;;5094472;28;20020;-84
2023/10/02 05:54:47;;;;;;;15.70;7.00;;;;;;;;;;5093277;28;20299;-83
2023/10/02 05:57:14;;;;;;;14.90;7.07;;;;;;;;;;5094181;28;20426;-90
2023/10/02 05:59:44;;;;;;;19.20;7.78;;;;;;;;;;5093519;28;20031;-90
2023/10/02 06:02:13;;;;;;;17.25;8.40;;;;;;;;;;5093457;28;20070;-90
2023/10/02 06:04:43;;;;;;;15.00;7.28;;;;;;;;;;5094479;28;20028;-90
2023/10/02 06:07:11;;;;;;;18.02;7.50;;;;;;;;;;5093320;28;20027;-90
2023/10/02 06:09:43;;;;;;;16.20;7.30;;;;;;;;;;5092973;28;20437;-91
2023/10/02 06:25:28;;;;;;;15.25;7.85;;;;;;;;;;5074965;27;20824;-93
2023/10/02 06:28:19;;;;;;;18.02;8.00;;;;;;;;;;5074117;28;20067;-92
2023/10/02 06:30:43;;;;;;;16.67;8.23;;;;;;;;;;5074613;28;20033;-92
2023/10/02 06:33:10;;;;;;;18.40;8.90;;;;;;;;;;5073547;28;20032;-92
2023/10/02 06:35:44;;;;;;;19.35;8.80;;;;;;;;;;5074057;28;20024;-91
2023/10/02 06:38:16;;;;;;;20.08;8.63;;;;;;;;;;5074735;28;20091;-93
2023/10/02 06:40:56;;;;;;;16.92;8.30;;;;;;;;;;5073626;28;20017;-93
2023/10/02 06:43:29;;;;;;;18.50;7.70;;;;;;;;;;5074630;28;20116;-93
2023/10/02 06:46:13;;;;;;;19.45;7.82;;;;;;;;;;5075033;28;20021;-96
2023/10/02 06:48:43;;;;;;;19.65;8.38;;;;;;;;;;5074308;28;20036;-91
2023/10/02 06:51:10;;;;;;;23.63;8.60;;;;;;;;;;5073442;28;20024;-93
2023/10/02 06:53:40;;;;;;;17.23;8.88;;;;;;;;;;5074182;28;20411;-93
2023/10/02 06:56:07;;;;;;;21.98;9.00;;;;;;;;;;5074829;28;20028;-91
2023/10/02 06:58:48;;;;;;;21.83;8.15;;;;;;;;;;5073404;28;20071;-92
2023/10/02 07:01:18;;;;;;;18.05;8.52;;;;;;;;;;5074480;28;20029;-94
2023/10/02 07:03:50;;;;;;;13.05;7.32;;;;;;;;;;5074156;28;20025;-92
2023/10/02 07:06:19;;;;;;;16.17;7.53;;;;;;;;;;5074133;28;20025;-92
2023/10/02 07:08:47;;;;;;;17.90;7.40;;;;;;;;;;5072986;28;20032;-92
2023/10/02 07:11:14;;;;;;;17.70;7.85;;;;;;;;;;5073024;28;20055;-96
2023/10/02 07:13:51;;;;;;;13.43;8.20;;;;;;;;;;5072899;28;20046;-92
2023/10/02 07:16:22;;;;;;;21.27;7.78;;;;;;;;;;5073593;28;20060;-92
2023/10/02 07:18:53;;;;;;;18.77;7.70;;;;;;;;;;5072793;28;20032;-93
2023/10/02 07:21:21;;;;;;;19.80;7.60;;;;;;;;;;5073533;28;20025;-93
2023/10/02 07:23:47;;;;;;;14.52;7.78;;;;;;;;;;5072609;28;20064;-93
2023/10/02 07:26:14;;;;;;;14.48;6.82;;;;;;;;;;5061334;28;20063;-92
2023/10/02 07:28:50;;;;;;;12.95;6.80;;;;;;;;;;5060280;28;20036;-92
2023/10/02 07:31:18;;;;;;;19.10;6.57;;;;;;;;;;5059233;28;20035;-92
2023/10/02 07:33:45;;;;;;;18.52;7.03;;;;;;;;;;5060376;28;20087;-92
2023/10/02 07:36:28;;;;;;;13.13;7.55;;;;;;;;;;5062469;28;20122;-96
2023/10/02 07:39:32;;;;;;;18.55;7.38;;;;;;;;;;5060239;28;20047;-96
2023/10/02 07:49:16;;;;;;;;;;;;;;;;;;;;;
2023/10/02 07:52:04;;;;;;;;;;;;;;;;;;;;;
2023/10/02 07:54:44;;;;;;;20.42;7.93;;;;;;;;;;4960248;29;20045;-94
2023/10/02 07:57:30;;;;;;;;;;;;;;;;;;;;;
2023/10/02 08:04:03;;;;;;;;;;;;;;;;;;;;;
2023/10/02 08:06:48;;;;;;;24.90;9.15;;;;;;;;;;4959362;29;20083;-96
2023/10/02 08:15:32;;;;;;;19.15;7.60;;;;;;;;;;4887044;29;19979;-92
2023/10/02 08:18:04;;;;;;;12.05;6.00;;;;;;;;;;4869296;29;20029;-95
2023/10/02 08:20:40;;;;;;;15.02;5.63;;;;;;;;;;4884153;29;20055;-94
2023/10/02 08:23:24;;;;;;;12.73;5.90;;;;;;;;;;4883764;29;20036;-95
2023/10/02 08:26:04;;;;;;;13.43;6.07;;;;;;;;;;4883384;29;20073;-95
2023/10/02 08:28:33;;;;;;;15.70;6.05;;;;;;;;;;4884154;29;20064;-95
2023/10/02 08:31:00;;;;;;;10.20;5.15;;;;;;;;;;4883737;29;20048;-96
2023/10/02 08:33:27;;;;;;;12.88;5.47;;;;;;;;;;4887167;29;20045;-94
2023/10/02 08:35:54;;;;;;;10.52;5.72;;;;;;;;;;4902178;29;20032;-96
2023/10/02 08:38:23;;;;;;;9.75;5.32;;;;;;;;;;4901714;29;20207;-95
2023/10/02 08:40:59;;;;;;;11.20;5.50;;;;;;;;;;4937923;29;20326;-96
2023/10/02 08:43:29;;;;;;;11.73;5.50;;;;;;;;;;4940041;29;20091;-96
2023/10/02 08:45:59;;;;;;;13.18;6.10;;;;;;;;;;4940086;29;20032;-95
2023/10/02 08:48:25;;;;;;;13.65;5.70;;;;;;;;;;4951835;28;20328;-96
2023/10/02 08:50:58;;;;;;;13.50;5.50;;;;;;;;;;5004931;28;20037;-96
2023/10/02 08:53:25;;;;;;;23.00;10.68;;;;;;;;;;5038202;28;20032;-94
2023/10/02 08:56:01;;;;;;;13.25;6.03;;;;;;;;;;5038087;28;20030;-95
2023/10/02 08:58:29;;;;;;;14.27;4.82;;;;;;;;;;5038503;28;20024;-96
2023/10/02 09:03:48;;;;;;;9.75;4.10;;;;;;;;;;5038523;28;20061;-96
2023/10/02 09:06:32;;;;;;;13.32;4.47;;;;;;;;;;5038526;28;20388;-96
2023/10/02 09:11:41;;;;;;;17.80;4.78;;;;;;;;;;5038590;28;20033;-96
2023/10/02 09:16:47;;;;;;;7.20;3.55;;;;;;;;;;5038575;28;20026;-95
2023/10/02 09:19:28;;;;;;;14.30;5.40;;;;;;;;;;5037426;28;20018;-95
2023/10/02 09:22:06;;;;;;;9.18;3.90;;;;;;;;;;5038389;28;20021;-96
2023/10/02 09:24:34;;;;;;;9.75;3.92;;;;;;;;;;5038109;28;20041;-95
2023/10/02 09:27:20;;;;;;;11.98;4.15;;;;;;;;;;5037735;28;20044;-95
2023/10/02 09:29:46;;;;;;;10.77;4.40;;;;;;;;;;5037471;28;20435;-95
2023/10/02 09:32:21;;;;;;;12.38;4.47;;;;;;;;;;5038697;28;20108;-95
2023/10/02 09:35:21;;;;;;;10.82;4.10;;;;;;;;;;5038044;28;20358;-96
2023/10/02 09:37:55;;;;;;;12.30;4.32;;;;;;;;;;5037187;28;20407;-96
2023/10/02 09:40:21;;;;;;;8.73;3.75;;;;;;;;;;5038041;28;20021;-96
2023/10/02 09:42:49;;;;;;;10.25;3.65;;;;;;;;;;5037245;28;20056;-96
2023/10/02 09:45:16;;;;;;;13.52;3.92;;;;;;;;;;5037091;28;20017;-96
2023/10/02 09:47:42;;;;;;;10.75;3.80;;;;;;;;;;5037701;28;20044;-96
2023/10/02 09:50:25;;;;;;;14.55;4.20;;;;;;;;;;5037863;28;20018;-96
2023/10/02 09:52:59;;;;;;;9.38;3.80;;;;;;;;;;5038432;28;20021;-95
2023/10/02 09:55:46;;;;;;;12.82;4.25;;;;;;;;;;5037033;28;20026;-96
2023/10/02 09:58:28;;;;;;;9.93;3.92;;;;;;;;;;5037856;28;20419;-96
2023/10/02 10:03:55;;;;;;;10.90;3.53;;;;;;;;;;5037747;28;20371;-96
2023/10/02 10:06:41;;;;;;;10.50;3.85;;;;;;;;;;5038074;28;20132;-96
2023/10/02 10:11:45;;;;;;;9.15;3.53;;;;;;;;;;5037673;28;20029;-93
2023/10/02 10:14:44;;;;;;;8.75;3.55;;;;;;;;;;5036461;28;20030;-93
2023/10/02 10:17:17;;;;;;;6.78;3.38;;;;;;;;;;5036926;28;20028;-92
2023/10/02 10:19:49;;;;;;;8.45;3.40;;;;;;;;;;5038912;28;20029;-94
2023/10/02 10:22:39;;;;;;;8.05;3.17;;;;;;;;;;5037628;28;20032;-94
2023/10/02 10:25:32;;;;;;;6.30;3.20;;;;;;;;;;4996588;28;20121;-94
2023/10/02 10:28:05;;;;;;;10.75;3.72;;;;;;;;;;4938704;29;20048;-95
2023/10/02 10:30:39;;;;;;;7.63;3.30;;;;;;;;;;4938650;29;20060;-94
2023/10/02 10:35:34;;;;;;;9.63;3.38;;;;;;;;;;4938819;29;20398;-89
2023/10/02 10:38:26;;;;;;;9.85;3.67;;;;;;;;;;4938863;29;20108;-88
2023/10/02 10:41:09;;;;;;;8.90;3.40;;;;;;;;;;4954421;29;20031;-92
2023/10/02 10:46:17;;;;;;;6.95;2.97;;;;;;;;;;4938490;29;20032;-92
2023/10/02 10:48:48;;;;;;;8.43;3.47;;;;;;;;;;4938388;29;20127;-91
2023/10/02 10:51:20;;;;;;;10.03;3.97;;;;;;;;;;4938443;29;20055;-91
2023/10/02 10:53:54;;;;;;;8.05;3.58;;;;;;;;;;4954514;29;20290;-91
2023/10/02 10:56:22;;;;;;;11.38;4.13;;;;;;;;;;4938173;29;20521;-90
2023/10/02 10:58:52;;;;;;;10.90;3.67;;;;;;;;;;4954417;29;20095;-91
2023/10/02 11:01:22;;;;;;;9.10;3.85;;;;;;;;;;4968865;28;20089;-92
2023/10/02 11:03:54;;;;;;;12.15;4.15;;;;;;;;;;4985023;28;20030;-82
2023/10/02 11:06:23;;;;;;;9.93;3.60;;;;;;;;;;5040412;28;20104;-82
2023/10/02 11:09:12;;;;;;;14.18;4.30;;;;;;;;;;5039545;28;20025;-82
2023/10/02 11:11:50;;;;;;;11.98;4.18;;;;;;;;;;5039205;28;20470;-83
2023/10/02 11:14:35;;;;;;;8.82;4.28;;;;;;;;;;5037665;28;20025;-82
2023/10/02 11:17:04;;;;;;;8.05;3.83;;;;;;;;;;5038589;28;20022;-82
2023/10/02 11:22:21;;;;;;;10.00;3.78;;;;;;;;;;5039918;28;20036;-82
2023/10/02 11:24:53;;;;;;;8.75;3.78;;;;;;;;;;5039880;28;20033;-82
2023/10/02 11:27:19;;;;;;;7.00;3.72;;;;;;;;;;5039887;28;20038;-82
2023/10/02 11:30:02;;;;;;;8.55;3.75;;;;;;;;;;5039807;28;20328;-82
2023/10/02 11:33:02;;;;;;;10.35;3.35;;;;;;;;;;5038676;28;20021;-82
2023/10/02 11:35:29;;;;;;;10.05;3.70;;;;;;;;;;5038368;28;20037;-82
2023/10/02 11:37:55;;;;;;;8.70;3.50;;;;;;;;;;5037283;28;20033;-82
2023/10/02 11:40:25;;;;;;;9.07;4.20;;;;;;;;;;5038399;28;20041;-81
2023/10/02 11:42:51;;;;;;;10.65;3.85;;;;;;;;;;5039031;28;20033;-83
2023/10/02 11:45:17;;;;;;;10.25;4.35;;;;;;;;;;5037823;28;20117;-82
2023/10/02 11:47:43;;;;;;;11.18;3.88;;;;;;;;;;5039781;28;20048;-82
2023/10/02 11:50:12;;;;;;;7.65;3.75;;;;;;;;;;5038250;28;20080;-82
2023/10/02 11:52:38;;;;;;;12.30;4.40;;;;;;;;;;5039484;28;20064;-82
2023/10/02 11:55:04;;;;;;;12.00;3.58;;;;;;;;;;5038342;28;20033;-82
2023/10/02 12:10:28;;;;;;;9.38;4.10;;;;;;;;;;5135609;27;20360;-85
2023/10/02 12:12:54;;;;;;;13.07;3.92;;;;;;;;;;5135502;28;20024;-85
2023/10/02 12:15:21;;;;;;;15.95;4.85;;;;;;;;;;5117018;28;20050;-85
2023/10/02 12:17:47;;;;;;;10.13;4.65;;;;;;;;;;5135183;28;20060;-84
2023/10/02 12:20:16;;;;;;;14.82;4.45;;;;;;;;;;5135084;28;20020;-85
2023/10/02 12:22:46;;;;;;;9.70;3.78;;;;;;;;;;5117172;28;20020;-84
2023/10/02 12:25:12;;;;;;;13.55;4.50;;;;;;;;;;5116359;28;20028;-85
2023/10/02 12:27:41;;;;;;;12.15;4.50;;;;;;;;;;5135130;28;20024;-85
2023/10/02 12:30:11;;;;;;;9.90;4.13;;;;;;;;;;5137417;28;20423;-94
2023/10/02 12:45:06;;;;;;;9.43;3.92;;;;;;;;;;5094909;27;20374;-93
2023/10/02 12:47:35;;;;;;;10.07;4.28;;;;;;;;;;5094943;28;20028;-96
2023/10/02 12:50:01;;;;;;;9.40;4.32;;;;;;;;;;5093914;28;20036;-95
2023/10/02 12:52:27;;;;;;;10.63;4.25;;;;;;;;;;5093378;28;20031;-79
2023/10/02 12:54:53;;;;;;;9.43;4.45;;;;;;;;;;5094119;28;20028;-79
2023/10/02 12:57:19;;;;;;;11.07;4.60;;;;;;;;;;5094083;28;20020;-80
2023/10/02 12:59:45;;;;;;;12.38;4.35;;;;;;;;;;5094200;28;20029;-80
2023/10/02 13:02:11;;;;;;;11.35;4.15;;;;;;;;;;5094174;28;20040;-80
2023/10/02 13:04:37;;;;;;;12.38;4.25;;;;;;;;;;5094040;28;20017;-80
2023/10/02 13:07:05;;;;;;;12.23;4.18;;;;;;;;;;5094054;28;20051;-80
2023/10/02 13:09:32;;;;;;;9.20;4.28;;;;;;;;;;5094084;28;20035;-80
2023/10/02 13:12:00;;;;;;;12.75;4.20;;;;;;;;;;5093275;28;20310;-81
2023/10/02 13:14:26;;;;;;;13.55;4.13;;;;;;;;;;5094111;28;20463;-80
2023/10/02 13:16:53;;;;;;;8.85;3.88;;;;;;;;;;5093985;28;20033;-80
2023/10/02 13:19:19;;;;;;;17.23;4.20;;;;;;;;;;5093699;28;20414;-80
2023/10/02 13:21:51;;;;;;;14.88;4.20;;;;;;;;;;5093712;28;20029;-80
2023/10/02 13:24:17;;;;;;;22.98;4.97;;;;;;;;;;5093972;28;20366;-82
2023/10/02 13:26:44;;;;;;;19.33;4.50;;;;;;;;;;5092936;28;20039;-81
2023/10/02 13:29:10;;;;;;;22.17;4.38;;;;;;;;;;5092614;28;20028;-80
2023/10/02 13:31:37;;;;;;;12.48;3.65;;;;;;;;;;5093177;28;20362;-79
2023/10/02 13:34:05;;;;;;;35.53;24.08;;;;;;;;;;5092903;28;20077;-80
2023/10/02 13:36:33;;;;;;;12.82;4.47;;;;;;;;;;5093556;28;20020;-80
2023/10/02 13:38:59;;;;;;;12.60;4.75;;;;;;;;;;5092488;28;20116;-79
2023/10/02 13:41:26;;;;;;;15.70;6.80;;;;;;;;;;5091280;28;20051;-79
2023/10/02 13:43:54;;;;;;;9.07;4.00;;;;;;;;;;5091195;28;20373;-79
2023/10/02 13:46:21;;;;;;;16.35;4.32;;;;;;;;;;5076835;28;20326;-79
2023/10/02 13:48:49;;;;;;;13.48;4.28;;;;;;;;;;5078535;28;20024;-79
2023/10/02 13:51:18;;;;;;;13.88;4.18;;;;;;;;;;5079934;28;20074;-79
2023/10/02 13:53:45;;;;;;;8.55;3.35;;;;;;;;;;5077793;28;20036;-79
2023/10/02 13:56:16;;;;;;;11.77;3.80;;;;;;;;;;5078626;28;20025;-79
2023/10/02 13:58:43;;;;;;;12.82;3.70;;;;;;;;;;5078032;28;20296;-79
2023/10/02 14:01:14;;;;;;;9.60;3.28;;;;;;;;;;5077809;28;20029;-79
2023/10/02 14:03:41;;;;;;;12.52;3.92;;;;;;;;;;5078703;28;20033;-79
2023/10/02 14:06:08;;;;;;;5.75;3.45;;;;;;;;;;5077099;28;20029;-79
2023/10/02 14:08:34;;;;;;;8.63;2.95;;;;;;;;;;5079480;28;20463;-86
2023/10/02 14:11:00;;;;;;;11.73;3.97;;;;;;;;;;5073513;28;20044;-87
2023/10/02 14:13:31;;;;;;;8.45;3.50;;;;;;;;;;5059932;28;20048;-87
2023/10/02 14:16:03;;;;;;;9.00;3.53;;;;;;;;;;5060206;28;20342;-87
2023/10/02 14:21:35;;;;;;;7.10;3.17;;;;;;;;;;5080002;28;20024;-86
2023/10/02 14:24:01;;;;;;;10.38;2.90;;;;;;;;;;5076024;28;20021;-86
2023/10/02 14:26:28;;;;;;;8.68;3.63;;;;;;;;;;5059425;28;20108;-86
2023/10/02 14:28:55;;;;;;;10.82;3.08;;;;;;;;;;5058667;28;20028;-86
2023/10/02 14:31:22;;;;;;;9.85;3.13;;;;;;;;;;5059775;28;20096;-86
2023/10/02 14:33:48;;;;;;;11.15;4.30;;;;;;;;;;5058333;28;20032;-86
2023/10/02 14:36:15;;;;;;;12.45;3.72;;;;;;;;;;5058496;28;20017;-85
2023/10/02 14:38:41;;;;;;;7.95;3.15;;;;;;;;;;5059479;28;20453;-85
2023/10/02 14:41:08;;;;;;;9.27;3.17;;;;;;;;;;5059308;28;20044;-84
2023/10/02 14:43:35;;;;;;;10.80;3.53;;;;;;;;;;5058864;28;20052;-85
2023/10/02 14:46:02;;;;;;;11.80;3.90;;;;;;;;;;5058333;28;20124;-86
2023/10/02 14:48:28;;;;;;;12.02;3.40;;;;;;;;;;5059210;28;20025;-86
2023/10/02 14:50:58;;;;;;;10.25;3.40;;;;;;;;;;5058251;28;20035;-88
2023/10/02 14:53:25;;;;;;;11.30;4.35;;;;;;;;;;5061644;28;20052;-86
2023/10/02 14:55:52;;;;;;;11.27;3.53;;;;;;;;;;5058079;28;20022;-87
2023/10/02 14:58:20;;;;;;;13.27;5.05;;;;;;;;;;5057964;28;20488;-86
2023/10/02 15:00:47;;;;;;;9.18;4.05;;;;;;;;;;5059001;28;20036;-86
2023/10/02 15:03:14;;;;;;;9.95;3.47;;;;;;;;;;5059029;28;20296;-86
2023/10/02 15:05:40;;;;;;;12.43;3.92;;;;;;;;;;5057904;28;20025;-86
2023/10/02 15:08:12;;;;;;;11.35;3.58;;;;;;;;;;5058013;28;20025;-86
2023/10/02 15:10:39;;;;;;;8.98;3.33;;;;;;;;;;5057654;28;20025;-86
2023/10/02 15:13:06;;;;;;;11.63;3.90;;;;;;;;;;5058581;28;20029;-86
2023/10/02 15:15:32;;;;;;;8.70;3.40;;;;;;;;;;5057993;28;20032;-85
2023/10/02 15:17:58;;;;;;;10.40;3.53;;;;;;;;;;5057434;28;20120;-86
2023/10/02 15:20:25;;;;;;;8.75;3.10;;;;;;;;;;5058514;28;20024;-86
2023/10/02 15:22:52;;;;;;;11.20;3.78;;;;;;;;;;5058520;28;20025;-85
2023/10/02 15:25:20;;;;;;;10.02;3.22;;;;;;;;;;5057327;28;20021;-86
2023/10/02 15:27:47;;;;;;;5.25;2.72;;;;;;;;;;5058623;28;20322;-86
2023/10/02 15:30:17;;;;;;;7.53;3.25;;;;;;;;;;5057583;28;20124;-86
2023/10/02 15:32:47;;;;;;;10.00;3.03;;;;;;;;;;5058304;28;20021;-86
2023/10/02 15:35:16;;;;;;;8.30;3.22;;;;;;;;;;5058371;28;20044;-85
2023/10/02 15:37:46;;;;;;;12.70;2.97;;;;;;;;;;5057005;28;20481;-85
2023/10/02 15:40:15;;;;;;;15.55;3.40;;;;;;;;;;5058070;28;20025;-86
2023/10/02 15:42:42;;;;;;;9.75;3.63;;;;;;;;;;5057071;28;20040;-86
2023/10/02 15:45:15;;;;;;;12.02;3.25;;;;;;;;;;5057161;28;20025;-86
2023/10/02 15:47:45;;;;;;;11.07;3.10;;;;;;;;;;5058078;28;20017;-87
2023/10/02 15:50:12;;;;;;;9.13;3.67;;;;;;;;;;5058109;28;20051;-86
2023/10/02 15:52:38;;;;;;;16.55;4.28;;;;;;;;;;5057861;28;20017;-87
2023/10/02 15:55:09;;;;;;;12.52;3.83;;;;;;;;;;5058175;28;20029;-86
2023/10/02 15:57:36;;;;;;;15.48;3.53;;;;;;;;;;5057074;28;20390;-86
2023/10/02 16:00:02;;;;;;;8.18;2.95;;;;;;;;;;5057532;28;20021;-86
2023/10/02 16:02:28;;;;;;;11.02;3.30;;;;;;;;;;5058047;28;20021;-86
2023/10/02 16:04:54;;;;;;;10.48;3.30;;;;;;;;;;5057149;28;20423;-85
2023/10/02 16:07:20;;;;;;;9.20;3.28;;;;;;;;;;5056616;28;20061;-87
2023/10/02 16:09:46;;;;;;;14.38;3.53;;;;;;;;;;5057678;28;20021;-87
2023/10/02 16:12:13;;;;;;;21.58;5.07;;;;;;;;;;5057857;28;20043;-87
2023/10/02 16:14:39;;;;;;;13.50;3.80;;;;;;;;;;5056843;28;20410;-86
2023/10/02 16:17:07;;;;;;;12.30;3.63;;;;;;;;;;5056797;28;20398;-86
2023/10/02 16:19:34;;;;;;;8.07;3.55;;;;;;;;;;5057402;28;20096;-86
2023/10/02 16:22:01;;;;;;;10.95;3.75;;;;;;;;;;5057750;28;20039;-86
2023/10/02 16:24:27;;;;;;;11.60;3.67;;;;;;;;;;5057304;28;20029;-86
2023/10/02 16:26:55;;;;;;;13.05;5.18;;;;;;;;;;5057448;28;20025;-86
2023/10/02 16:29:21;;;;;;;16.70;6.93;;;;;;;;;;5057590;28;20029;-86
2023/10/02 16:31:47;;;;;;;17.83;8.50;;;;;;;;;;5057406;28;20142;-87
2023/10/02 16:34:13;;;;;;;26.08;7.95;;;;;;;;;;5057269;28;20333;-87
2023/10/02 16:36:40;;;;;;;22.60;5.78;;;;;;;;;;5057590;28;20411;-86
2023/10/02 16:39:07;;;;;;;26.17;5.40;;;;;;;;;;5057636;28;20066;-86
2023/10/02 16:41:33;;;;;;;24.48;5.10;;;;;;;;;;5056648;28;20036;-87
2023/10/02 16:44:03;;;;;;;17.88;4.88;;;;;;;;;;5056277;28;20324;-87
2023/10/02 16:46:30;;;;;;;16.77;4.97;;;;;;;;;;5057433;28;20029;-87
2023/10/02 16:48:56;;;;;;;17.90;4.22;;;;;;;;;;5056302;28;20033;-86
2023/10/02 16:51:22;;;;;;;14.52;4.47;;;;;;;;;;5057354;28;20041;-87
2023/10/02 16:53:48;;;;;;;26.90;5.45;;;;;;;;;;5057155;28;20037;-87
2023/10/02 16:56:16;;;;;;;19.45;5.10;;;;;;;;;;5057488;28;20166;-87
2023/10/02 16:58:44;;;;;;;29.77;4.95;;;;;;;;;;5056261;28;20100;-87
2023/10/02 17:01:10;;;;;;;29.10;5.50;;;;;;;;;;5056199;28;20029;-86
2023/10/02 17:03:39;;;;;;;40.22;5.93;;;;;;;;;;5057242;28;20362;-87
2023/10/02 17:06:14;;;;;;;54.28;6.43;;;;;;;;;;5057204;28;20029;-86
2023/10/02 17:08:41;;;;;;;44.67;6.53;;;;;;;;;;5057304;28;20039;-87
2023/10/02 17:11:14;;;;;;;33.38;5.28;;;;;;;;;;5057085;28;20115;-87
2023/10/02 17:13:41;;;;;;;31.80;5.38;;;;;;;;;;5056040;28;20021;-87
2023/10/02 17:16:08;;;;;;;31.23;5.43;;;;;;;;;;5056099;28;20063;-87
2023/10/02 17:18:34;;;;;;;19.08;4.13;;;;;;;;;;5056764;28;20078;-87